Time;durP1;ratioP1;P1;durP2;ratioP2;P2;SDS_P1;SDS_P2;PMS_P1;PMS_P2;Temp;Humidity;BMP_temperature;BMP_pressure;BME280_temperature;BME280_humidity;BME280_pressure;Samples;Min_cycle;Max_cycle;Signal;HPM_P1;HPM_P2
2021/04/23 00:01:32;;;;;;;12.93;4.05;;;2.40;90.40;;;;;;4956543;29;20531;-86
2021/04/23 00:04:00;;;;;;;12.50;4.10;;;2.30;90.70;;;;;;4958123;29;20027;-87
2021/04/23 00:06:36;;;;;;;15.40;4.20;;;2.30;90.50;;;;;;4955035;29;20122;-86
2021/04/23 00:09:13;;;;;;;16.05;4.88;;;2.20;90.60;;;;;;4954670;29;20038;-87
2021/04/23 00:11:46;;;;;;;10.50;4.15;;;2.20;90.60;;;;;;4940701;29;20098;-86
2021/04/23 00:14:14;;;;;;;;;;;2.10;90.60;;;;;;4958426;29;20055;-87
2021/04/23 00:16:41;;;;;;;16.33;4.25;;;2.10;90.60;;;;;;4952386;29;20318;-87
2021/04/23 00:19:09;;;;;;;9.65;4.40;;;2.00;90.70;;;;;;4945907;29;20095;-86
2021/04/23 00:21:34;;;;;;;12.18;3.67;;;2.00;90.80;;;;;;4944562;29;20389;-87
2021/04/23 00:24:00;;;;;;;16.90;4.50;;;2.00;90.80;;;;;;4944493;29;20029;-87
2021/04/23 00:26:26;;;;;;;14.90;4.32;;;2.00;90.90;;;;;;4954689;29;20027;-87
2021/04/23 00:28:51;;;;;;;12.20;3.88;;;2.00;91.00;;;;;;4938651;29;20119;-87
2021/04/23 00:31:17;;;;;;;14.57;4.20;;;2.00;91.10;;;;;;4944302;29;20027;-87
2021/04/23 00:33:42;;;;;;;16.35;3.70;;;2.00;91.10;;;;;;4953862;29;20042;-87
2021/04/23 00:36:09;;;;;;;9.82;4.10;;;2.00;91.10;;;;;;4958030;29;20027;-87
2021/04/23 00:38:37;;;;;;;14.93;4.72;;;1.90;91.10;;;;;;4957816;29;20031;-87
2021/04/23 00:41:06;;;;;;;16.52;5.90;;;1.90;91.10;;;;;;4956969;29;20190;-87
2021/04/23 00:43:38;;;;;;;10.15;3.65;;;1.90;91.10;;;;;;4940436;29;20051;-87
2021/04/23 00:46:05;;;;;;;9.70;3.65;;;1.90;91.20;;;;;;4947666;29;20432;-86
2021/04/23 00:48:34;;;;;;;16.83;4.53;;;1.90;91.20;;;;;;4948824;29;20131;-86
2021/04/23 00:51:07;;;;;;;13.25;3.63;;;1.90;91.30;;;;;;4956148;29;20118;-87
2021/04/23 00:53:35;;;;;;;14.85;3.92;;;1.90;91.20;;;;;;4955549;29;20039;-87
2021/04/23 00:56:04;;;;;;;10.85;4.53;;;1.90;91.20;;;;;;4954280;29;20028;-86
2021/04/23 00:58:30;;;;;;;8.98;3.45;;;1.90;91.20;;;;;;4956614;29;20073;-86
2021/04/23 01:01:03;;;;;;;9.85;3.67;;;1.90;91.20;;;;;;4956110;28;20038;-87
2021/04/23 01:03:30;;;;;;;12.65;3.38;;;1.90;91.30;;;;;;4950217;29;20468;-86
2021/04/23 01:05:56;;;;;;;11.45;3.38;;;1.90;91.30;;;;;;4950732;29;20039;-86
2021/04/23 01:08:25;;;;;;;12.25;3.67;;;1.90;91.30;;;;;;4956874;28;20027;-87
2021/04/23 01:10:56;;;;;;;19.08;5.43;;;1.90;91.30;;;;;;4956611;28;20126;-86
2021/04/23 01:13:25;;;;;;;11.32;3.63;;;1.80;91.30;;;;;;4956692;29;20126;-87
2021/04/23 01:15:51;;;;;;;13.57;4.00;;;1.80;91.30;;;;;;4957851;28;20034;-86
2021/04/23 01:18:16;;;;;;;11.98;4.47;;;1.80;91.40;;;;;;4956182;29;20402;-86
2021/04/23 01:20:42;;;;;;;8.80;4.13;;;1.70;91.50;;;;;;4957385;29;20024;-87
2021/04/23 01:23:07;;;;;;;15.85;4.70;;;1.60;91.50;;;;;;4956639;29;20512;-86
2021/04/23 01:25:33;;;;;;;15.05;5.25;;;1.60;91.60;;;;;;4956560;29;20026;-86
2021/04/23 01:27:58;;;;;;;12.82;5.43;;;1.60;91.70;;;;;;4955498;29;20027;-86
2021/04/23 01:30:24;;;;;;;12.63;5.03;;;1.50;91.70;;;;;;4957046;28;20023;-86
2021/04/23 01:32:51;;;;;;;15.02;4.18;;;1.50;91.80;;;;;;4957652;28;20495;-87
2021/04/23 01:35:22;;;;;;;13.20;5.40;;;1.50;91.80;;;;;;4955795;29;20023;-87
2021/04/23 01:37:48;;;;;;;14.98;5.32;;;1.50;91.90;;;;;;4946360;29;20042;-87
2021/04/23 01:40:14;;;;;;;14.35;4.72;;;1.50;91.90;;;;;;4953802;28;20055;-87
2021/04/23 01:42:40;;;;;;;11.77;4.30;;;1.50;92.00;;;;;;4940778;29;20038;-87
2021/04/23 01:45:08;;;;;;;18.20;4.93;;;1.50;92.00;;;;;;4949217;29;20031;-87
2021/04/23 01:47:33;;;;;;;16.75;4.88;;;1.50;92.10;;;;;;4949903;29;20028;-87
2021/04/23 01:49:59;;;;;;;15.20;5.13;;;1.50;92.10;;;;;;4956714;29;20064;-87
2021/04/23 01:52:25;;;;;;;18.17;5.65;;;1.40;92.10;;;;;;4955998;29;20031;-86
2021/04/23 01:54:51;;;;;;;18.05;5.15;;;1.40;92.20;;;;;;4953288;28;20027;-87
2021/04/23 01:57:18;;;;;;;12.88;5.28;;;1.40;92.30;;;;;;4953573;29;20032;-87
2021/04/23 01:59:46;;;;;;;18.48;5.10;;;1.40;92.30;;;;;;4942657;29;20042;-87
2021/04/23 02:02:13;;;;;;;13.98;5.22;;;1.30;92.30;;;;;;4956675;29;20115;-87
2021/04/23 02:04:40;;;;;;;18.77;5.63;;;1.30;92.40;;;;;;4956076;29;20387;-87
2021/04/23 02:07:08;;;;;;;23.67;6.28;;;1.30;92.40;;;;;;4955990;29;20098;-86
2021/04/23 02:09:34;;;;;;;16.00;6.05;;;1.30;92.40;;;;;;4965298;28;20111;-87
2021/04/23 02:12:00;;;;;;;13.45;5.28;;;1.30;92.50;;;;;;4939466;29;20036;-87
2021/04/23 02:14:27;;;;;;;16.75;5.88;;;1.30;92.50;;;;;;4956952;28;20039;-87
2021/04/23 02:16:53;;;;;;;16.80;5.35;;;1.40;92.60;;;;;;4956953;28;20384;-87
2021/04/23 02:19:21;;;;;;;13.27;5.75;;;1.30;92.50;;;;;;4955468;29;20023;-87
2021/04/23 02:21:48;;;;;;;13.50;5.07;;;1.40;92.60;;;;;;4950411;28;20083;-87
2021/04/23 02:24:14;;;;;;;13.13;5.25;;;1.30;92.60;;;;;;4954283;29;20023;-86
2021/04/23 02:26:41;;;;;;;13.63;5.57;;;1.30;92.60;;;;;;4954875;29;20082;-86
2021/04/23 02:29:09;;;;;;;20.10;6.03;;;1.30;92.60;;;;;;4947780;29;20395;-86
2021/04/23 02:31:36;;;;;;;14.98;5.38;;;1.30;92.60;;;;;;4956880;28;20043;-86
2021/04/23 02:34:05;;;;;;;15.90;5.50;;;1.20;92.70;;;;;;4951007;29;20128;-87
2021/04/23 02:36:31;;;;;;;20.00;5.82;;;1.20;92.60;;;;;;4955533;29;20031;-87
2021/04/23 02:38:57;;;;;;;19.05;5.97;;;1.10;92.70;;;;;;4954559;29;20024;-87
2021/04/23 02:41:23;;;;;;;19.80;5.43;;;1.00;92.80;;;;;;4945631;28;20101;-86
2021/04/23 02:43:54;;;;;;;19.90;6.28;;;1.00;92.90;;;;;;4955316;29;20027;-86
2021/04/23 02:46:22;;;;;;;20.48;5.45;;;1.00;92.90;;;;;;4955186;29;20027;-87
2021/04/23 02:48:48;;;;;;;15.60;6.00;;;1.00;92.90;;;;;;4955271;29;20027;-87
2021/04/23 02:51:21;;;;;;;20.25;6.68;;;1.00;92.90;;;;;;4954971;29;20019;-87
2021/04/23 02:53:48;;;;;;;15.75;5.43;;;1.00;93.00;;;;;;4949691;29;20547;-87
2021/04/23 02:56:14;;;;;;;14.77;5.47;;;1.00;93.00;;;;;;4952884;29;20060;-87
2021/04/23 02:58:41;;;;;;;19.98;6.60;;;1.00;93.00;;;;;;4944168;29;20055;-86
2021/04/23 03:01:19;;;;;;;13.68;6.13;;;1.00;93.00;;;;;;4949881;29;20031;-86
2021/04/23 03:03:45;;;;;;;16.90;5.82;;;0.90;92.90;;;;;;4954637;29;20259;-87
2021/04/23 03:06:12;;;;;;;24.90;6.65;;;0.80;93.00;;;;;;4955216;29;20062;-87
2021/04/23 03:08:38;;;;;;;25.08;6.53;;;0.80;93.00;;;;;;4952804;28;20106;-86
2021/04/23 03:11:18;;;;;;;15.02;6.22;;;0.80;93.10;;;;;;4953263;29;20077;-87
2021/04/23 03:13:53;;;;;;;19.23;6.47;;;0.80;93.20;;;;;;4947909;28;20067;-87
2021/04/23 03:16:18;;;;;;;12.32;5.32;;;0.70;93.10;;;;;;4937876;29;20032;-87
2021/04/23 03:18:46;;;;;;;17.00;6.03;;;0.70;93.20;;;;;;4954827;29;20031;-87
2021/04/23 03:21:14;;;;;;;13.55;6.30;;;0.70;93.20;;;;;;4949255;28;20032;-87
2021/04/23 03:23:41;;;;;;;23.25;6.72;;;0.70;93.20;;;;;;4953017;29;20047;-87
2021/04/23 03:26:08;;;;;;;24.63;7.85;;;0.60;93.20;;;;;;4947060;29;20030;-87
2021/04/23 03:28:35;;;;;;;28.10;7.80;;;0.70;93.30;;;;;;4955025;28;20515;-87
2021/04/23 03:31:01;;;;;;;21.83;7.60;;;0.70;93.40;;;;;;4953668;29;20023;-87
2021/04/23 03:33:27;;;;;;;22.75;7.60;;;0.90;93.60;;;;;;4951103;29;20121;-87
2021/04/23 03:35:55;;;;;;;15.55;7.03;;;0.90;93.40;;;;;;4953556;28;20063;-88
2021/04/23 03:38:22;;;;;;;19.83;6.75;;;1.00;93.30;;;;;;4940971;29;20114;-87
2021/04/23 03:40:49;;;;;;;21.30;6.32;;;0.90;93.20;;;;;;4950859;29;20078;-88
2021/04/23 03:43:15;;;;;;;18.67;6.38;;;0.90;93.20;;;;;;4944504;29;20070;-87
2021/04/23 03:45:41;;;;;;;18.65;5.63;;;0.80;93.60;;;;;;4954905;29;20101;-88
2021/04/23 03:48:08;;;;;;;21.65;5.95;;;0.70;93.20;;;;;;4954391;29;20492;-88
2021/04/23 03:50:35;;;;;;;17.85;6.90;;;0.60;93.30;;;;;;4954995;28;20528;-87
2021/04/23 03:53:04;;;;;;;17.63;6.50;;;0.60;93.50;;;;;;4958344;29;20499;-88
2021/04/23 03:55:34;;;;;;;20.63;7.25;;;0.50;93.60;;;;;;4957117;28;20023;-87
2021/04/23 03:58:00;;;;;;;14.80;6.50;;;0.50;93.70;;;;;;4952871;28;20046;-87
2021/04/23 04:00:31;;;;;;;18.38;7.22;;;0.50;94.00;;;;;;4951526;29;20035;-87
2021/04/23 04:02:57;;;;;;;23.13;6.82;;;0.50;93.60;;;;;;4956709;29;20059;-86
2021/04/23 04:05:23;;;;;;;21.65;6.47;;;0.50;93.60;;;;;;4954825;29;20035;-87
2021/04/23 04:07:49;;;;;;;19.58;7.53;;;0.40;93.70;;;;;;4948983;29;20024;-87
2021/04/23 04:10:16;;;;;;;15.45;5.75;;;0.40;94.00;;;;;;4954903;29;20028;-87
2021/04/23 04:12:42;;;;;;;23.23;7.13;;;0.40;93.70;;;;;;4941074;29;20039;-88
2021/04/23 04:15:08;;;;;;;19.13;5.82;;;0.40;93.80;;;;;;4953691;29;20491;-88
2021/04/23 04:17:33;;;;;;;16.70;6.60;;;0.40;93.90;;;;;;4957991;29;20492;-87
2021/04/23 04:20:00;;;;;;;14.30;5.28;;;0.40;93.90;;;;;;4950330;29;20034;-88
2021/04/23 04:22:26;;;;;;;12.77;5.22;;;0.40;94.00;;;;;;4954524;29;20561;-87
2021/04/23 04:24:52;;;;;;;12.95;5.85;;;0.40;94.00;;;;;;4952132;28;20031;-89
2021/04/23 04:27:17;;;;;;;15.38;5.38;;;0.40;94.00;;;;;;4958567;29;20027;-88
2021/04/23 04:29:45;;;;;;;22.77;6.70;;;0.40;94.00;;;;;;4955696;29;20102;-88
2021/04/23 04:32:10;;;;;;;19.27;7.18;;;0.50;94.10;;;;;;4955045;29;20043;-87
2021/04/23 04:34:36;;;;;;;14.65;6.28;;;0.50;94.10;;;;;;4955000;29;20024;-87
2021/04/23 04:37:02;;;;;;;18.25;7.65;;;0.60;94.10;;;;;;4958592;28;20387;-87
2021/04/23 04:39:27;;;;;;;17.48;6.22;;;0.70;94.20;;;;;;4955257;28;21084;-87
2021/04/23 04:41:53;;;;;;;18.65;6.53;;;0.80;94.10;;;;;;4955968;29;20043;-87
2021/04/23 04:44:18;;;;;;;17.85;6.60;;;0.90;94.10;;;;;;4954731;28;20376;-87
2021/04/23 04:46:44;;;;;;;18.08;6.43;;;1.00;94.20;;;;;;4954241;29;20033;-87
2021/04/23 04:49:11;;;;;;;14.10;7.10;;;1.10;94.10;;;;;;4954728;29;20172;-88
2021/04/23 04:51:37;;;;;;;18.95;5.97;;;1.20;94.10;;;;;;4958388;29;20039;-88
2021/04/23 04:54:04;;;;;;;21.52;6.35;;;1.20;94.10;;;;;;4958569;28;20356;-87
2021/04/23 04:56:30;;;;;;;18.35;6.90;;;1.30;94.10;;;;;;4951732;28;20007;-88
2021/04/23 04:58:56;;;;;;;18.05;6.75;;;1.40;94.10;;;;;;4959154;28;20059;-87
2021/04/23 05:01:21;;;;;;;15.43;6.85;;;1.40;94.10;;;;;;4960332;28;20033;-88
2021/04/23 05:03:47;;;;;;;18.35;7.82;;;1.50;94.10;;;;;;4968503;28;20031;-88
2021/04/23 05:06:13;;;;;;;19.38;6.93;;;1.60;94.10;;;;;;4958654;28;20379;-88
2021/04/23 05:08:39;;;;;;;19.85;7.00;;;1.70;94.10;;;;;;4961438;28;20109;-88
2021/04/23 05:11:05;;;;;;;14.65;5.65;;;1.90;94.10;;;;;;4957643;29;20023;-88
2021/04/23 05:13:30;;;;;;;15.23;6.22;;;2.00;94.10;;;;;;4954857;28;20067;-88
2021/04/23 05:15:57;;;;;;;12.98;6.32;;;2.00;94.00;;;;;;4950663;29;20035;-88
2021/04/23 05:18:22;;;;;;;17.55;6.18;;;2.10;94.00;;;;;;4955585;29;20039;-87
2021/04/23 05:20:48;;;;;;;17.38;6.55;;;2.20;94.00;;;;;;4945809;29;20027;-88
2021/04/23 05:23:14;;;;;;;17.98;6.75;;;2.30;94.00;;;;;;4954730;29;20059;-89
2021/04/23 05:25:40;;;;;;;18.25;6.50;;;2.40;94.00;;;;;;4951405;29;20476;-88
2021/04/23 05:28:06;;;;;;;20.30;7.25;;;2.50;93.90;;;;;;4949173;29;20034;-87
2021/04/23 05:30:33;;;;;;;18.50;7.70;;;2.60;93.90;;;;;;4955271;29;20110;-87
2021/04/23 05:33:01;;;;;;;19.23;6.90;;;2.80;94.00;;;;;;4954568;29;20492;-88
2021/04/23 05:35:28;;;;;;;17.55;6.40;;;2.90;94.00;;;;;;4970052;28;20058;-88
2021/04/23 05:37:54;;;;;;;16.63;5.93;;;3.10;94.00;;;;;;4955632;28;20119;-87
2021/04/23 05:40:27;;;;;;;17.85;7.80;;;3.20;93.90;;;;;;4958797;28;20046;-87
2021/04/23 05:42:53;;;;;;;18.50;6.85;;;3.30;93.90;;;;;;4961231;28;20381;-88
2021/04/23 05:45:19;;;;;;;18.08;7.00;;;3.40;93.80;;;;;;4962343;28;20034;-88
2021/04/23 05:47:45;;;;;;;17.33;7.18;;;3.50;93.80;;;;;;4954951;28;20027;-88
2021/04/23 05:50:12;;;;;;;18.17;7.40;;;3.70;93.80;;;;;;4959419;28;20054;-88
2021/04/23 05:52:39;;;;;;;19.92;7.90;;;3.80;93.70;;;;;;4958113;28;20061;-87
2021/04/23 05:55:07;;;;;;;16.83;7.10;;;3.90;93.70;;;;;;4940856;28;20060;-87
2021/04/23 05:57:33;;;;;;;25.65;8.43;;;4.00;93.70;;;;;;4953623;28;20051;-87
2021/04/23 05:59:58;;;;;;;16.88;7.45;;;4.10;93.60;;;;;;4957842;28;20031;-86
2021/04/23 06:02:24;;;;;;;20.35;8.43;;;4.20;93.60;;;;;;4960356;28;20085;-86
2021/04/23 06:04:49;;;;;;;19.20;7.13;;;4.30;93.60;;;;;;4959616;28;20031;-87
2021/04/23 06:07:15;;;;;;;20.20;7.55;;;4.30;93.40;;;;;;4955802;28;20041;-86
2021/04/23 06:09:40;;;;;;;19.17;8.35;;;4.40;93.40;;;;;;4953990;28;20020;-87
2021/04/23 06:12:06;;;;;;;17.90;6.97;;;4.40;93.40;;;;;;4949194;28;20039;-87
2021/04/23 06:14:32;;;;;;;19.17;9.05;;;4.50;93.40;;;;;;4946617;29;20035;-87
2021/04/23 06:16:59;;;;;;;16.77;8.43;;;4.60;93.40;;;;;;4950823;29;20028;-88
2021/04/23 06:19:25;;;;;;;16.52;8.65;;;4.70;93.40;;;;;;4950663;29;20032;-87
2021/04/23 06:21:51;;;;;;;29.27;8.10;;;4.80;93.40;;;;;;4952714;28;20033;-87
2021/04/23 06:24:17;;;;;;;19.60;8.77;;;5.00;93.50;;;;;;4954725;28;20028;-88
2021/04/23 06:26:43;;;;;;;25.27;8.70;;;5.10;93.40;;;;;;4955043;29;20020;-87
2021/04/23 06:29:08;;;;;;;19.50;9.75;;;5.30;93.40;;;;;;4947574;28;20038;-87
2021/04/23 06:31:34;;;;;;;31.23;10.27;;;5.50;93.30;;;;;;4951568;29;20028;-88
2021/04/23 06:34:00;;;;;;;18.27;8.48;;;5.60;93.20;;;;;;4950351;29;20066;-88
2021/04/23 06:36:25;;;;;;;25.75;8.75;;;5.70;93.20;;;;;;4953626;29;20023;-87
2021/04/23 06:38:51;;;;;;;20.40;8.95;;;5.90;93.30;;;;;;4947384;28;20035;-88
2021/04/23 06:41:17;;;;;;;16.90;8.05;;;6.00;93.20;;;;;;4943251;28;20043;-87
2021/04/23 06:43:43;;;;;;;17.15;8.23;;;6.20;93.10;;;;;;4951721;29;20070;-87
2021/04/23 06:46:10;;;;;;;22.35;8.73;;;6.30;93.00;;;;;;4954605;28;20420;-86
2021/04/23 06:48:36;;;;;;;16.63;7.03;;;6.50;92.90;;;;;;4953148;28;20035;-89
2021/04/23 06:51:04;;;;;;;17.90;6.95;;;6.50;92.70;;;;;;4965855;28;20099;-91
2021/04/23 06:53:31;;;;;;;14.80;6.13;;;6.60;92.60;;;;;;4950624;28;20047;-88
2021/04/23 06:55:57;;;;;;;12.98;6.20;;;6.70;92.30;;;;;;4947736;28;20487;-87
2021/04/23 06:58:23;;;;;;;17.98;8.40;;;6.70;92.30;;;;;;4955078;28;20391;-88
2021/04/23 07:00:49;;;;;;;21.38;7.45;;;6.90;92.50;;;;;;4946579;28;20019;-88
2021/04/23 07:03:14;;;;;;;15.00;5.00;;;7.20;92.20;;;;;;4955542;28;20561;-88
2021/04/23 07:05:42;;;;;;;15.95;5.75;;;7.30;91.80;;;;;;4949513;29;20027;-87
2021/04/23 07:08:09;;;;;;;24.52;7.30;;;7.40;92.00;;;;;;4957600;28;20031;-88
2021/04/23 07:10:35;;;;;;;21.42;5.63;;;7.50;91.60;;;;;;4945076;28;20058;-88
2021/04/23 07:13:01;;;;;;;13.20;5.47;;;7.70;91.30;;;;;;4950695;29;20090;-88
2021/04/23 07:15:29;;;;;;;15.30;5.20;;;7.70;91.00;;;;;;4955560;29;20488;-88
2021/04/23 07:17:55;;;;;;;9.68;4.35;;;7.60;90.70;;;;;;4953923;29;20042;-88
2021/04/23 07:20:21;;;;;;;12.27;4.68;;;7.60;90.60;;;;;;4952195;29;20020;-88
2021/04/23 07:22:47;;;;;;;17.08;5.00;;;7.50;90.60;;;;;;4948752;28;20546;-88
2021/04/23 07:25:14;;;;;;;10.02;3.80;;;7.40;90.80;;;;;;4949803;28;20031;-87
2021/04/23 07:27:40;;;;;;;21.13;4.05;;;7.50;90.70;;;;;;4950062;29;20031;-87
2021/04/23 07:30:10;;;;;;;13.68;3.40;;;7.60;90.10;;;;;;4949014;28;20042;-89
2021/04/23 07:32:36;;;;;;;10.80;2.40;;;7.80;90.10;;;;;;4950141;28;20054;-86
2021/04/23 07:35:02;;;;;;;10.05;3.03;;;7.90;88.00;;;;;;4949473;28;20387;-88
2021/04/23 07:37:28;;;;;;;11.82;3.03;;;8.00;88.10;;;;;;4959364;28;20476;-88
2021/04/23 07:39:53;;;;;;;9.00;2.65;;;8.00;86.80;;;;;;4951177;28;20086;-89
2021/04/23 07:42:19;;;;;;;9.52;2.58;;;8.10;86.20;;;;;;4952383;29;20032;-89
2021/04/23 07:44:44;;;;;;;7.70;2.13;;;8.10;86.20;;;;;;4951606;29;20028;-90
2021/04/23 07:47:10;;;;;;;4.78;0.80;;;8.20;85.10;;;;;;4941051;29;20046;-88
2021/04/23 07:49:36;;;;;;;8.52;1.35;;;8.10;83.00;;;;;;4950287;29;20038;-87
2021/04/23 07:52:03;;;;;;;6.80;1.10;;;8.00;83.10;;;;;;4947133;29;20047;-88
2021/04/23 07:54:30;;;;;;;10.55;2.08;;;7.90;83.00;;;;;;4947231;29;20023;-87
2021/04/23 07:56:55;;;;;;;8.43;2.08;;;7.80;83.10;;;;;;4944415;29;20039;-87
2021/04/23 07:59:21;;;;;;;7.03;0.95;;;7.90;83.00;;;;;;4946530;29;20436;-87
2021/04/23 08:01:50;;;;;;;15.30;1.88;;;8.10;82.50;;;;;;4944398;29;20035;-87
2021/04/23 08:04:16;;;;;;;7.43;1.02;;;8.30;81.80;;;;;;4945641;29;20407;-87
2021/04/23 08:06:41;;;;;;;9.52;1.20;;;8.40;81.30;;;;;;4945953;29;20016;-87
2021/04/23 08:09:07;;;;;;;13.32;1.33;;;8.50;80.50;;;;;;4942460;29;20023;-88
2021/04/23 08:11:32;;;;;;;7.38;1.55;;;8.70;80.50;;;;;;4943588;29;20019;-88
2021/04/23 08:13:58;;;;;;;5.82;0.63;;;8.80;79.40;;;;;;4943825;29;20042;-88
2021/04/23 08:16:24;;;;;;;5.90;0.88;;;8.90;78.30;;;;;;4947132;29;20127;-88
2021/04/23 08:18:53;;;;;;;7.57;1.00;;;8.90;78.10;;;;;;4943086;28;20171;-88
2021/04/23 08:21:19;;;;;;;10.15;1.00;;;8.90;77.90;;;;;;4949291;29;20063;-88
2021/04/23 08:23:47;;;;;;;7.43;1.08;;;9.10;77.70;;;;;;4949548;29;20020;-87
2021/04/23 08:26:15;;;;;;;13.05;1.15;;;9.10;77.30;;;;;;4946472;29;20423;-88
2021/04/23 08:28:42;;;;;;;9.57;1.58;;;9.10;76.60;;;;;;4947839;29;20034;-88
2021/04/23 08:31:08;;;;;;;5.43;1.23;;;9.20;76.70;;;;;;4944603;29;20034;-88
2021/04/23 08:33:34;;;;;;;9.15;1.13;;;9.30;76.60;;;;;;4948244;29;20501;-88
2021/04/23 08:35:59;;;;;;;7.03;1.45;;;9.40;76.10;;;;;;4946542;29;21614;-88
2021/04/23 08:38:25;;;;;;;6.85;1.40;;;9.60;76.70;;;;;;4947993;29;20047;-88
2021/04/23 08:40:53;;;;;;;8.65;1.65;;;9.80;75.00;;;;;;4950241;29;20140;-89
2021/04/23 08:43:18;;;;;;;6.18;1.85;;;10.10;74.20;;;;;;4943013;28;20023;-88
2021/04/23 08:45:44;;;;;;;6.20;1.30;;;10.30;73.80;;;;;;4950504;29;20027;-87
2021/04/23 08:48:10;;;;;;;9.55;1.30;;;10.50;73.30;;;;;;4949398;29;20027;-87
2021/04/23 08:50:36;;;;;;;9.45;1.10;;;10.50;70.70;;;;;;4948137;28;20035;-88
2021/04/23 08:53:02;;;;;;;10.30;1.35;;;10.40;70.50;;;;;;4947150;29;20561;-89
2021/04/23 08:55:28;;;;;;;9.30;1.90;;;10.40;71.00;;;;;;4947236;28;20103;-88
2021/04/23 08:57:54;;;;;;;7.22;1.20;;;10.50;71.00;;;;;;4947261;28;20031;-88
2021/04/23 09:00:20;;;;;;;10.45;1.13;;;10.50;69.80;;;;;;4949828;28;20028;-88
2021/04/23 09:02:46;;;;;;;7.97;1.77;;;10.60;69.80;;;;;;4945059;29;20522;-88
2021/04/23 09:05:13;;;;;;;4.20;1.20;;;10.60;69.60;;;;;;4951738;29;20035;-88
2021/04/23 09:07:39;;;;;;;8.15;1.35;;;10.60;69.50;;;;;;4967566;28;20035;-88
2021/04/23 09:10:11;;;;;;;8.32;1.13;;;10.60;68.00;;;;;;4948338;29;20123;-88
2021/04/23 09:12:38;;;;;;;8.27;1.13;;;10.40;68.20;;;;;;4947882;29;20470;-87
2021/04/23 09:15:20;;;;;;;9.77;1.33;;;10.30;69.00;;;;;;4946493;28;20034;-88
2021/04/23 09:18:10;;;;;;;5.82;1.00;;;10.40;68.20;;;;;;4946740;28;20404;-88
2021/04/23 09:20:39;;;;;;;8.00;1.55;;;10.30;67.80;;;;;;4948121;28;20027;-87
2021/04/23 09:23:22;;;;;;;8.05;1.50;;;10.20;67.50;;;;;;4948584;29;20054;-86
2021/04/23 09:25:56;;;;;;;7.75;1.55;;;10.10;67.60;;;;;;4949198;29;20034;-87
2021/04/23 09:28:33;;;;;;;11.25;1.70;;;10.00;68.00;;;;;;4954167;29;20066;-87
2021/04/23 09:31:19;;;;;;;6.00;1.20;;;9.90;68.10;;;;;;4951178;29;20031;-87
2021/04/23 09:33:54;;;;;;;6.10;1.17;;;10.00;68.60;;;;;;4948253;28;20031;-86
2021/04/23 09:36:37;;;;;;;6.07;1.20;;;10.00;68.70;;;;;;4950298;29;20027;-87
2021/04/23 09:39:20;;;;;;;8.25;1.67;;;10.10;68.30;;;;;;4951305;29;20550;-87
2021/04/23 09:42:02;;;;;;;7.57;1.17;;;10.20;67.70;;;;;;4950921;29;20106;-88
2021/04/23 09:44:42;;;;;;;4.30;1.10;;;10.40;66.80;;;;;;4951962;28;20027;-88
2021/04/23 09:47:23;;;;;;;10.50;1.70;;;10.50;66.80;;;;;;4948868;28;20027;-88
2021/04/23 09:49:57;;;;;;;8.32;1.60;;;10.50;66.40;;;;;;4948498;28;20039;-85
2021/04/23 09:52:23;;;;;;;9.75;1.27;;;10.40;65.60;;;;;;4946855;28;20039;-87
2021/04/23 09:54:51;;;;;;;10.88;1.55;;;10.30;66.00;;;;;;4946537;29;20027;-86
2021/04/23 09:57:22;;;;;;;9.30;1.33;;;10.10;66.50;;;;;;4951181;28;20039;-86
2021/04/23 09:59:53;;;;;;;6.57;1.10;;;10.10;67.30;;;;;;4945236;29;20038;-86
2021/04/23 10:02:21;;;;;;;5.88;1.13;;;10.40;68.00;;;;;;4945959;29;20035;-86
2021/04/23 10:04:47;;;;;;;8.60;1.83;;;10.80;67.10;;;;;;4950475;28;20043;-86
2021/04/23 10:07:14;;;;;;;14.18;2.60;;;11.00;66.30;;;;;;4947282;29;20039;-86
2021/04/23 10:09:50;;;;;;;5.18;1.30;;;10.90;65.50;;;;;;4947068;29;20023;-86
2021/04/23 10:12:34;;;;;;;6.93;1.65;;;10.80;66.20;;;;;;4949827;29;20031;-86
2021/04/23 10:15:14;;;;;;;6.88;1.20;;;11.00;66.80;;;;;;4946441;28;20472;-86
2021/04/23 10:17:42;;;;;;;7.20;1.13;;;11.00;65.70;;;;;;4949557;29;20033;-86
2021/04/23 10:20:10;;;;;;;6.82;1.15;;;10.90;65.20;;;;;;4949353;29;20117;-87
2021/04/23 10:22:35;;;;;;;13.75;1.92;;;10.90;65.80;;;;;;4946544;29;20035;-87
2021/04/23 10:25:01;;;;;;;9.60;1.77;;;11.00;65.20;;;;;;4945050;28;20035;-86
2021/04/23 10:27:27;;;;;;;8.65;1.90;;;11.00;65.60;;;;;;4960693;28;20153;-86
2021/04/23 10:29:53;;;;;;;5.60;1.23;;;11.10;65.90;;;;;;4944217;29;20123;-86
2021/04/23 10:32:20;;;;;;;4.80;1.40;;;11.30;65.90;;;;;;4963513;28;20043;-86
2021/04/23 10:34:46;;;;;;;8.50;1.67;;;11.40;64.50;;;;;;4945649;28;20037;-88
2021/04/23 10:37:14;;;;;;;6.38;1.10;;;11.40;64.50;;;;;;4946762;28;20023;-87
2021/04/23 10:39:46;;;;;;;7.68;1.50;;;11.40;63.80;;;;;;4946158;29;20082;-88
2021/04/23 10:42:51;;;;;;;8.95;1.33;;;11.40;63.90;;;;;;4947898;28;20019;-88
2021/04/23 10:45:21;;;;;;;8.00;1.40;;;11.30;62.60;;;;;;4943387;28;20023;-87
2021/04/23 10:47:49;;;;;;;9.30;1.55;;;11.20;63.40;;;;;;4943846;28;20044;-88
2021/04/23 10:50:20;;;;;;;10.68;1.75;;;11.20;63.70;;;;;;4946692;29;20042;-87
2021/04/23 10:53:11;;;;;;;5.45;1.30;;;11.20;64.00;;;;;;4948588;28;20107;-88
2021/04/23 10:55:47;;;;;;;5.10;1.10;;;11.30;64.00;;;;;;4945995;28;20042;-87
2021/04/23 10:58:25;;;;;;;9.45;2.10;;;11.40;64.00;;;;;;4963216;28;20024;-87
2021/04/23 11:00:52;;;;;;;11.75;1.65;;;11.50;64.60;;;;;;4947718;29;20040;-86
2021/04/23 11:03:20;;;;;;;7.60;1.08;;;11.70;63.90;;;;;;4947714;29;20106;-85
2021/04/23 11:05:47;;;;;;;7.82;1.67;;;11.80;63.90;;;;;;4944065;28;20050;-86
2021/04/23 11:08:13;;;;;;;11.60;1.67;;;12.00;63.50;;;;;;4947285;28;20664;-87
2021/04/23 11:11:02;;;;;;;9.50;1.88;;;12.10;62.00;;;;;;4945870;28;20139;-87
2021/04/23 11:13:30;;;;;;;7.05;1.45;;;12.10;61.90;;;;;;4949632;28;20040;-86
2021/04/23 11:16:17;;;;;;;5.85;1.30;;;12.10;61.90;;;;;;4944300;28;20037;-87
2021/04/23 11:18:46;;;;;;;7.45;1.13;;;12.20;60.90;;;;;;4961558;28;20070;-86
2021/04/23 11:24:11;;;;;;;9.15;1.38;;;12.30;59.80;;;;;;4937216;29;20091;-86
2021/04/23 11:26:56;;;;;;;7.63;1.45;;;12.30;60.00;;;;;;4946595;29;20055;-87
2021/04/23 11:29:21;;;;;;;8.15;1.20;;;12.40;58.50;;;;;;4947804;29;20020;-86
2021/04/23 11:32:22;;;;;;;7.63;1.15;;;12.40;58.20;;;;;;4944626;29;20098;-87
2021/04/23 11:34:52;;;;;;;5.78;1.10;;;12.50;58.80;;;;;;4946848;28;20023;-87
2021/04/23 11:37:20;;;;;;;9.32;1.08;;;12.50;58.20;;;;;;4954191;28;20326;-87
2021/04/23 11:39:52;;;;;;;5.95;1.40;;;12.70;57.90;;;;;;4951309;28;20038;-86
2021/04/23 11:42:22;;;;;;;4.07;0.80;;;12.70;57.40;;;;;;4952329;28;20023;-87
2021/04/23 11:45:03;;;;;;;8.07;0.90;;;12.80;56.60;;;;;;4947025;28;20027;-87
2021/04/23 11:47:37;;;;;;;8.40;1.35;;;12.80;55.80;;;;;;4949600;29;20094;-87
2021/04/23 11:50:11;;;;;;;10.80;2.00;;;12.80;56.30;;;;;;4965643;28;20059;-88
2021/04/23 11:52:38;;;;;;;6.00;1.15;;;12.80;56.70;;;;;;4947089;29;20054;-87
2021/04/23 11:55:22;;;;;;;10.73;1.42;;;12.90;56.60;;;;;;4948927;28;20015;-87
2021/04/23 11:57:50;;;;;;;7.15;1.27;;;13.00;56.40;;;;;;4952167;29;20123;-88
2021/04/23 12:00:23;;;;;;;7.18;1.00;;;13.00;56.30;;;;;;4968959;28;20054;-87
2021/04/23 12:03:04;;;;;;;8.40;1.33;;;13.00;55.90;;;;;;4948936;29;20504;-87
2021/04/23 12:05:40;;;;;;;7.55;0.90;;;13.10;55.30;;;;;;4953977;29;20452;-87
2021/04/23 12:08:17;;;;;;;13.10;1.40;;;13.10;55.80;;;;;;4951810;28;20041;-87
2021/04/23 12:10:45;;;;;;;7.30;1.27;;;13.10;55.20;;;;;;4954210;28;20042;-87
2021/04/23 12:13:15;;;;;;;5.57;1.17;;;13.30;56.00;;;;;;4955944;29;20058;-87
2021/04/23 12:15:43;;;;;;;12.52;1.13;;;13.40;55.60;;;;;;4950730;29;20039;-88
2021/04/23 12:18:10;;;;;;;8.20;1.27;;;13.50;55.40;;;;;;4947191;29;20083;-87
2021/04/23 12:20:40;;;;;;;4.53;1.30;;;13.50;54.50;;;;;;4953004;28;20452;-87
2021/04/23 12:23:08;;;;;;;7.10;1.00;;;13.50;54.20;;;;;;4947097;29;20028;-88
2021/04/23 12:25:45;;;;;;;4.47;1.00;;;13.50;54.10;;;;;;4951184;29;20031;-87
2021/04/23 12:28:37;;;;;;;6.50;1.73;;;13.40;54.60;;;;;;4951504;28;20031;-87
2021/04/23 12:31:18;;;;;;;5.45;1.02;;;13.30;53.60;;;;;;4954837;29;20054;-87
2021/04/23 12:33:59;;;;;;;7.05;1.02;;;13.20;53.80;;;;;;4970606;28;20534;-87
2021/04/23 12:36:30;;;;;;;8.40;1.00;;;13.30;54.10;;;;;;4950818;28;20057;-87
2021/04/23 12:39:27;;;;;;;8.07;1.48;;;13.40;54.00;;;;;;4951602;28;20070;-86
2021/04/23 12:41:54;;;;;;;7.20;1.35;;;13.50;53.80;;;;;;4938235;28;20047;-86
2021/04/23 12:44:28;;;;;;;8.52;1.33;;;13.60;53.50;;;;;;4950919;29;20062;-86
2021/04/23 12:47:06;;;;;;;5.00;1.27;;;13.70;54.30;;;;;;4950450;29;20030;-87
2021/04/23 12:49:38;;;;;;;6.00;1.20;;;13.70;52.30;;;;;;4948039;29;20035;-87
2021/04/23 12:52:13;;;;;;;8.90;2.00;;;13.70;52.80;;;;;;4950201;28;20121;-87
2021/04/23 12:54:45;;;;;;;6.70;1.42;;;13.70;52.20;;;;;;4971703;28;20053;-85
2021/04/23 12:57:13;;;;;;;5.97;1.23;;;13.70;53.30;;;;;;4956474;28;21468;-88
2021/04/23 12:59:48;;;;;;;8.88;1.40;;;13.80;53.40;;;;;;4950130;29;20053;-87